Hays Regional Airport
KHYS : now visible

Airfield :











YOU CAN JOIN US ON...

 
LOGIN :

Register | Disclaimer

   EN    FR    IT 

 









Legend :    VFR   Marginal VFR   IFR   Intensive IFR   Very Intensive IFR
Visi :
Ceiling :
>= 8 km
>= 3000ft
5 to 8 km
1000 to 3000 ft
1500m to 5 km
500 to 1000 ft
800 to 1500m
200 to 500 ft
< 800m
< 200 ft
Symbols :   Thunderstorms  Fog  Heavy snow  Heavy precipitations  Wind > 20 kt






- Airport Elevation : 1999 ft


KHYS - Hays Regional

CURRENT METAR :
  • 090156Z AUTO 14016KT 10SM CLR 31/20 A2973 RMK AO2 PK WND 14026/0103 SLP045 T03110200 PNO $

EXPIRED METARs :
  • 090056Z AUTO 15019G23KT 10SM CLR 33/21 A2973 RMK AO2 PK WND 14028/0009 SLP045 T03280206 PNO $
  • 082356Z AUTO 14020G27KT 10SM CLR 34/21 A2973 RMK AO2 PK WND 13028/2334 SLP045 6//// T03390206 10350 20322 56012 PNO $

TAF KHYS
Valid from the 09 at 00:00 until the 10 at 00:00 UTC


082320Z 0900/0924 15015G25KT P6SM SCT060
FM090300 15015G25KT P6SM SCT200 WS020/17040KT
FM090500 15015KT P6SM VCTS SCT100CB
TEMPO 0905/0907 VRB20G45KT -TSRA
FM090700 05012G22KT P6SM VCSH BKN150
FM091200 05012G22KT P6SM BKN150
KZKC FIR / North America



MET'MAP, your aeronautical weather chart ! - Copyright ORBIFLY December 2007 - Disclaimer

ORBIFLY MET'MAP TEAM :

Programming & Development : Alexandra Zaïnal
Concept & original design : Baudouin d'Aumeries
Assistance for programming : Marc-Olivier Méhu
Technical & hardware support : Manuel Goepfert

Contact : metmap@orbifly.com




SOURCES & CREDITS :

   NOAA       Earth
Advisory